This is the latest recevied weather packets stored in our database for station/object KJ4EBE. If no packets are shown the sender has not sent any weather packets the latest 10 day(s).
| Time | Temp. | Humidity | Pressure | Rain* | Wind** | Luminosity | Snow |
|---|---|---|---|---|---|---|---|
| 1778021634 | 30.56° C | 64% | 1005 hPa | 0 mm | - | 178 W/m² | - |
| 1778021329 | 30.56° C | 64% | 1005 hPa | 0 mm | - | 151 W/m² | - |
| 1778021027 | 31.11° C | 62% | 1005 hPa | 0 mm | - | 164 W/m² | - |
| 1778020724 | 31.67° C | 62% | 1005 hPa | 0 mm | - | 246 W/m² | - |
| 1778020420 | 31.11° C | 63% | 1005 hPa | 0 mm | - | 322 W/m² | - |
| 1778020116 | 31.11° C | 62% | 1005.2 hPa | 0 mm | - | 194 W/m² | - |
| 1778019813 | 31.11° C | 62% | 1005 hPa | 0 mm | - | 239 W/m² | - |
| 1778019510 | 31.67° C | 62% | 1005.1 hPa | 0 mm | - | 248 W/m² | - |
| 1778019206 | 31.67° C | 62% | 1005.1 hPa | 0 mm | - | 354 W/m² | - |
| 1778018904 | 31.67° C | 63% | 1005 hPa | 0 mm | - | 381 W/m² | - |
| 1778018600 | 31.11° C | 64% | 1004.9 hPa | 0 mm | - | 226 W/m² | - |
| 1778018299 | 31.11° C | 63% | 1005 hPa | 0 mm | - | 386 W/m² | - |
| 1778017996 | 31.67° C | 62% | 1005.1 hPa | 0 mm | - | 360 W/m² | - |
| 1778017694 | 31.67° C | 62% | 1005.1 hPa | 0 mm | - | 285 W/m² | - |
| 1778017391 | 31.67° C | 63% | 1005.1 hPa | 0 mm | - | 297 W/m² | - |
| 1778017088 | 32.22° C | 62% | 1005.1 hPa | 0 mm | - | 378 W/m² | - |
| 1778016786 | 31.11° C | 64% | 1005.4 hPa | 0 mm | - | 474 W/m² | - |
| 1778016481 | 31.11° C | 64% | 1005.4 hPa | 0 mm | - | 492 W/m² | - |
| 1778016179 | 31.11° C | 63% | 1005.5 hPa | 0 mm | - | 437 W/m² | - |
| 1778015875 | 31.11° C | 64% | 1005.4 hPa | 0 mm | - | 388 W/m² | - |
| 1778015573 | 31.11° C | 65% | 1005.4 hPa | 0 mm | - | 401 W/m² | - |
| 1778015269 | 32.78° C | 60% | 1005.5 hPa | 0 mm | - | 508 W/m² | - |
| 1778014966 | 31.67° C | 66% | 1005.5 hPa | 0 mm | - | 609 W/m² | - |
| 1778014663 | 31.67° C | 62% | 1005.5 hPa | 0 mm | - | 477 W/m² | - |
| 1778014362 | 31.11° C | 64% | 1005.6 hPa | 0 mm | - | 564 W/m² | - |
* Rain latest hour (hover to see other rain measurements)
** Current wind speed in m/s (hover to see current wind gust speed)